Time;durP1;ratioP1;P1;durP2;ratioP2;P2;SDS_P1;SDS_P2;PMS_P1;PMS_P2;Temp;Humidity;BMP_temperature;BMP_pressure;BME280_temperature;BME280_humidity;BME280_pressure;Samples;Min_cycle;Max_cycle;Signal;HPM_P1;HPM_P2
2023/01/20 00:00:26;;;;;;;5.22;3.65;;;-1.20;99.90;;;;;;5106586;28;20048;-84
2023/01/20 00:02:52;;;;;;;4.25;3.08;;;-1.20;99.90;;;;;;5081502;28;20075;-84
2023/01/20 00:05:18;;;;;;;5.03;3.30;;;-1.20;99.90;;;;;;5104754;28;20058;-84
2023/01/20 00:07:43;;;;;;;5.10;2.95;;;-0.90;99.90;;;;;;5105127;28;20043;-84
2023/01/20 00:10:09;;;;;;;3.85;2.97;;;-1.20;99.90;;;;;;5103340;28;20537;-84
2023/01/20 00:12:35;;;;;;;5.72;3.08;;;-1.10;99.90;;;;;;5071530;28;20058;-84
2023/01/20 00:15:01;;;;;;;4.13;3.17;;;-1.00;99.90;;;;;;5094462;28;20044;-84
2023/01/20 00:17:27;;;;;;;4.80;2.75;;;-0.80;99.90;;;;;;5109271;28;20401;-84
2023/01/20 00:19:53;;;;;;;6.95;3.80;;;-0.90;99.90;;;;;;5104406;28;20442;-84
2023/01/20 00:22:20;;;;;;;5.18;3.70;;;-0.80;99.90;;;;;;5109836;28;20042;-84
2023/01/20 00:24:46;;;;;;;4.85;3.88;;;-0.70;99.90;;;;;;5112809;28;20090;-84
2023/01/20 00:27:11;;;;;;;6.25;4.20;;;-0.50;99.90;;;;;;5110792;28;20075;-84
2023/01/20 00:29:37;;;;;;;6.88;4.60;;;-0.40;99.90;;;;;;5110469;28;20047;-84
2023/01/20 00:32:02;;;;;;;9.38;5.82;;;-0.30;99.90;;;;;;5109252;28;20050;-84
2023/01/20 00:34:28;;;;;;;9.13;5.50;;;-0.30;99.90;;;;;;5095509;28;20097;-83
2023/01/20 00:36:54;;;;;;;10.20;5.45;;;-0.20;99.90;;;;;;5101011;28;20122;-84
2023/01/20 00:39:19;;;;;;;9.98;5.63;;;-0.10;99.90;;;;;;5103587;28;20444;-84
2023/01/20 00:41:45;;;;;;;8.40;5.32;;;-0.10;99.90;;;;;;5093218;28;20048;-85
2023/01/20 00:44:13;;;;;;;9.02;5.82;;;0.70;99.90;;;;;;5108432;28;20071;-84
2023/01/20 00:46:39;;;;;;;12.25;6.22;;;0.00;99.90;;;;;;5073390;28;20119;-84
2023/01/20 00:49:04;;;;;;;10.10;6.88;;;0.10;99.90;;;;;;5089622;28;20123;-84
2023/01/20 00:51:30;;;;;;;14.40;7.32;;;0.10;99.90;;;;;;5102072;28;20108;-84
2023/01/20 00:53:55;;;;;;;14.82;7.47;;;0.10;99.90;;;;;;5109506;28;20043;-84
2023/01/20 00:56:21;;;;;;;14.02;7.95;;;0.20;99.90;;;;;;5109409;28;20051;-84
2023/01/20 00:58:47;;;;;;;17.77;8.60;;;0.20;99.90;;;;;;5109440;28;20116;-85
2023/01/20 01:01:13;;;;;;;15.30;9.30;;;0.20;99.90;;;;;;5105186;28;20142;-84
2023/01/20 01:03:38;;;;;;;16.33;10.23;;;0.30;99.90;;;;;;5104617;28;20047;-85
2023/01/20 01:06:09;;;;;;;17.75;9.45;;;0.30;99.90;;;;;;5107094;28;20083;-85
2023/01/20 01:08:35;;;;;;;16.83;9.93;;;0.30;99.90;;;;;;5106485;28;20051;-84
2023/01/20 01:11:01;;;;;;;15.93;9.05;;;0.30;99.90;;;;;;5107085;28;20413;-84
2023/01/20 01:13:26;;;;;;;19.40;9.40;;;0.40;99.90;;;;;;5109686;28;20453;-84
2023/01/20 01:15:52;;;;;;;18.95;9.57;;;0.40;99.90;;;;;;5095866;28;20048;-85
2023/01/20 01:18:17;;;;;;;16.42;9.20;;;0.40;99.90;;;;;;5106876;28;20131;-84
2023/01/20 01:20:43;;;;;;;15.85;9.40;;;0.40;99.90;;;;;;5110700;28;20123;-84
2023/01/20 01:23:12;;;;;;;16.35;9.55;;;-0.60;99.90;;;;;;5091646;28;20036;-85
2023/01/20 01:25:37;;;;;;;16.90;9.60;;;0.50;99.90;;;;;;5106391;28;20436;-85
2023/01/20 01:28:03;;;;;;;16.73;9.15;;;0.50;99.90;;;;;;5080666;28;20043;-85
2023/01/20 01:30:28;;;;;;;16.63;10.60;;;0.40;99.90;;;;;;5109351;28;20159;-85
2023/01/20 01:32:54;;;;;;;15.88;8.90;;;0.50;99.90;;;;;;5090646;28;20051;-84
2023/01/20 01:35:20;;;;;;;14.85;9.90;;;0.50;99.90;;;;;;5107727;28;20043;-85
2023/01/20 01:37:45;;;;;;;14.45;9.43;;;0.50;99.90;;;;;;5107859;28;20058;-84
2023/01/20 01:40:11;;;;;;;15.52;9.98;;;0.50;99.90;;;;;;5092878;28;20079;-84
2023/01/20 01:42:37;;;;;;;12.80;8.65;;;0.50;99.90;;;;;;5089015;28;20401;-86
2023/01/20 01:45:17;;;;;;;14.68;9.23;;;0.50;99.90;;;;;;5100791;28;20402;-85
2023/01/20 01:47:51;;;;;;;13.95;9.13;;;0.50;99.90;;;;;;5079245;28;20335;-85
2023/01/20 01:50:21;;;;;;;14.00;8.60;;;0.50;99.90;;;;;;5093856;28;20055;-85
2023/01/20 01:52:51;;;;;;;13.88;8.52;;;0.40;99.90;;;;;;5099855;28;20035;-85
2023/01/20 01:55:19;;;;;;;15.65;8.48;;;1.50;99.90;;;;;;5110597;28;20393;-84
2023/01/20 01:57:46;;;;;;;14.43;9.25;;;0.40;99.90;;;;;;5109134;28;20458;-85
2023/01/20 02:00:12;;;;;;;13.90;9.02;;;0.40;99.90;;;;;;5108178;28;20080;-85
2023/01/20 02:02:38;;;;;;;13.95;8.90;;;0.50;99.90;;;;;;5083816;28;20092;-85
2023/01/20 02:05:04;;;;;;;12.65;8.90;;;0.50;99.90;;;;;;5106553;28;20039;-85
2023/01/20 02:07:32;;;;;;;14.18;9.30;;;0.50;99.90;;;;;;5103007;28;20047;-86
2023/01/20 02:09:59;;;;;;;16.00;10.25;;;0.50;99.90;;;;;;5103176;28;20036;-85
2023/01/20 02:12:25;;;;;;;13.77;9.15;;;0.50;99.90;;;;;;5095927;28;20075;-85
2023/01/20 02:14:55;;;;;;;16.23;9.45;;;0.40;99.90;;;;;;5108854;28;20161;-85
2023/01/20 02:17:29;;;;;;;14.50;9.38;;;0.50;99.90;;;;;;5089874;28;20039;-85
2023/01/20 02:20:22;;;;;;;15.48;10.25;;;0.50;99.90;;;;;;5104464;27;20040;-84
2023/01/20 02:23:13;;;;;;;18.45;9.90;;;0.50;99.90;;;;;;5106001;28;20135;-85
2023/01/20 02:25:59;;;;;;;16.70;9.85;;;0.40;99.90;;;;;;5107053;28;20059;-85
2023/01/20 02:28:53;;;;;;;16.73;10.07;;;0.40;99.90;;;;;;5088302;28;20094;-87
2023/01/20 02:31:56;;;;;;;17.33;10.65;;;0.40;99.90;;;;;;5087436;28;20063;-86
2023/01/20 02:34:27;;;;;;;16.58;10.00;;;0.40;99.90;;;;;;5070674;28;20055;-85
2023/01/20 02:37:18;;;;;;;18.90;10.13;;;0.30;99.90;;;;;;5087111;28;20044;-84
2023/01/20 02:40:11;;;;;;;16.30;10.05;;;0.30;99.90;;;;;;5086154;28;20302;-85
2023/01/20 02:42:43;;;;;;;18.92;9.98;;;0.30;99.90;;;;;;5072419;28;20036;-86
2023/01/20 02:45:32;;;;;;;19.80;11.68;;;0.30;99.90;;;;;;5085641;28;20082;-86
2023/01/20 02:48:15;;;;;;;16.38;10.25;;;0.30;99.90;;;;;;5087236;28;20044;-85
2023/01/20 02:50:58;;;;;;;17.95;10.77;;;0.30;99.90;;;;;;5088379;28;20052;-85
2023/01/20 02:53:29;;;;;;;20.33;11.25;;;0.40;99.90;;;;;;5067521;28;20129;-85
2023/01/20 02:55:55;;;;;;;23.20;11.43;;;0.30;99.90;;;;;;5067855;28;20039;-84
2023/01/20 02:58:59;;;;;;;21.27;11.45;;;0.30;99.90;;;;;;5089403;28;20037;-85
2023/01/20 03:01:36;;;;;;;18.10;11.23;;;0.30;99.90;;;;;;4988752;28;20119;-85
2023/01/20 03:04:05;;;;;;;19.17;10.95;;;0.30;99.90;;;;;;5040990;28;20091;-85
2023/01/20 03:06:36;;;;;;;24.63;11.32;;;0.30;99.90;;;;;;5067342;28;20072;-85
2023/01/20 03:09:07;;;;;;;19.85;11.38;;;0.20;99.90;;;;;;5063960;28;20072;-85
2023/01/20 03:11:37;;;;;;;19.52;10.98;;;0.50;99.90;;;;;;5086439;28;20048;-85
2023/01/20 03:14:16;;;;;;;19.30;11.77;;;0.30;99.90;;;;;;5084426;28;20052;-85
2023/01/20 03:17:03;;;;;;;21.05;11.77;;;1.00;99.90;;;;;;5086086;28;20056;-85
2023/01/20 03:19:40;;;;;;;20.52;11.63;;;0.30;99.90;;;;;;5086296;28;20059;-85
2023/01/20 03:22:05;;;;;;;20.80;11.70;;;0.30;99.90;;;;;;5086516;28;20048;-85
2023/01/20 03:24:34;;;;;;;23.40;12.55;;;0.30;99.90;;;;;;5085134;28;20405;-85
2023/01/20 03:27:10;;;;;;;21.13;11.07;;;0.30;99.90;;;;;;5086431;28;20055;-85
2023/01/20 03:29:36;;;;;;;20.02;10.93;;;0.30;99.90;;;;;;5066734;28;20222;-85
2023/01/20 03:32:04;;;;;;;20.90;11.80;;;0.30;99.90;;;;;;5100720;28;20469;-85
2023/01/20 03:34:34;;;;;;;18.33;11.23;;;0.30;99.90;;;;;;5104191;28;20063;-85
2023/01/20 03:37:01;;;;;;;20.15;11.38;;;0.30;99.90;;;;;;5103636;28;20044;-85
2023/01/20 03:39:27;;;;;;;18.65;10.90;;;0.40;99.90;;;;;;5089740;28;20043;-85
2023/01/20 03:41:58;;;;;;;19.25;10.32;;;0.40;99.90;;;;;;5080070;28;20142;-85
2023/01/20 03:44:44;;;;;;;18.83;10.60;;;0.60;99.90;;;;;;5088444;28;20047;-85
2023/01/20 03:47:46;;;;;;;23.33;11.93;;;0.30;99.90;;;;;;5094310;28;20431;-85
2023/01/20 03:50:43;;;;;;;19.10;10.82;;;0.30;99.90;;;;;;5066031;28;20429;-84
2023/01/20 03:53:44;;;;;;;23.85;11.05;;;0.30;99.90;;;;;;5090048;28;20497;-83
2023/01/20 03:56:21;;;;;;;20.20;11.15;;;0.30;99.90;;;;;;5106817;28;20058;-83
2023/01/20 03:58:51;;;;;;;19.95;10.43;;;0.30;99.90;;;;;;5090075;28;20050;-83
2023/01/20 04:01:21;;;;;;;19.38;11.02;;;0.30;99.90;;;;;;5105243;28;20498;-84
2023/01/20 04:03:51;;;;;;;15.82;9.80;;;0.30;99.90;;;;;;5107516;28;20100;-84
2023/01/20 04:06:20;;;;;;;18.33;10.45;;;0.30;99.90;;;;;;5103619;28;20078;-84
2023/01/20 04:09:23;;;;;;;18.52;10.82;;;0.30;99.90;;;;;;5088918;28;20791;-84
2023/01/20 04:11:49;;;;;;;17.08;9.60;;;0.40;99.90;;;;;;5092354;28;20035;-84
2023/01/20 04:14:15;;;;;;;18.92;10.27;;;0.40;99.90;;;;;;5105137;28;20039;-84
2023/01/20 04:16:41;;;;;;;18.52;11.40;;;0.30;99.90;;;;;;5105962;28;20040;-84
2023/01/20 04:19:07;;;;;;;17.55;10.70;;;0.40;99.90;;;;;;5107358;28;20168;-85
2023/01/20 04:21:37;;;;;;;19.27;10.73;;;0.40;99.90;;;;;;5094543;28;20120;-84
2023/01/20 04:24:02;;;;;;;18.58;10.50;;;0.40;99.90;;;;;;5088580;28;20048;-84
2023/01/20 04:26:28;;;;;;;19.45;10.15;;;0.40;99.90;;;;;;5097787;28;20426;-84
2023/01/20 04:28:53;;;;;;;15.05;9.00;;;0.30;99.90;;;;;;5089083;28;20040;-84
2023/01/20 04:31:19;;;;;;;18.20;9.82;;;0.40;99.90;;;;;;5092132;28;20043;-84
2023/01/20 04:33:44;;;;;;;17.52;9.07;;;0.40;99.90;;;;;;5078813;28;20040;-84
2023/01/20 04:36:14;;;;;;;18.60;11.20;;;0.30;99.90;;;;;;5097056;28;20039;-84
2023/01/20 04:38:39;;;;;;;17.58;10.77;;;0.40;99.90;;;;;;5107257;28;20076;-85
2023/01/20 04:41:08;;;;;;;20.02;10.65;;;0.40;99.90;;;;;;5107274;28;20039;-84
2023/01/20 04:43:33;;;;;;;19.67;10.45;;;0.40;99.90;;;;;;5108163;28;20040;-85
2023/01/20 04:45:59;;;;;;;17.13;10.23;;;0.40;99.90;;;;;;5106993;28;20513;-83
2023/01/20 04:48:25;;;;;;;17.83;10.10;;;0.40;99.90;;;;;;5090522;28;20084;-85
2023/01/20 04:50:52;;;;;;;17.13;10.57;;;0.40;99.90;;;;;;5106495;28;20420;-84
2023/01/20 04:53:18;;;;;;;18.67;10.63;;;0.40;99.90;;;;;;5103778;28;20050;-84
2023/01/20 04:55:45;;;;;;;18.25;10.50;;;0.50;99.90;;;;;;5105174;28;20039;-85
2023/01/20 04:58:10;;;;;;;17.23;10.50;;;0.40;99.90;;;;;;5089954;28;20128;-84
2023/01/20 05:00:36;;;;;;;18.23;9.63;;;0.40;99.90;;;;;;5085302;28;20518;-84
2023/01/20 05:03:01;;;;;;;19.80;11.00;;;0.40;99.90;;;;;;5108459;28;20047;-85
2023/01/20 05:05:28;;;;;;;20.13;11.38;;;1.20;99.90;;;;;;5108947;28;20408;-84
2023/01/20 05:07:55;;;;;;;19.77;11.48;;;0.40;99.90;;;;;;5110032;28;20044;-84
2023/01/20 05:10:21;;;;;;;19.15;10.73;;;0.40;99.90;;;;;;5107566;28;20165;-84
2023/01/20 05:12:47;;;;;;;19.25;10.80;;;0.40;99.90;;;;;;5112007;28;20047;-84
2023/01/20 05:15:13;;;;;;;18.70;10.80;;;0.40;99.90;;;;;;5097632;28;20046;-85
2023/01/20 05:17:38;;;;;;;20.05;11.32;;;1.00;99.90;;;;;;5109779;28;20410;-84
2023/01/20 05:20:04;;;;;;;18.85;10.95;;;0.40;99.90;;;;;;5108324;28;20480;-84
2023/01/20 05:22:32;;;;;;;20.58;11.50;;;0.40;99.90;;;;;;5090491;28;20047;-84
2023/01/20 05:24:58;;;;;;;23.95;12.60;;;0.40;99.90;;;;;;5080590;28;20130;-84
2023/01/20 05:27:24;;;;;;;20.83;12.18;;;0.40;99.90;;;;;;5105725;28;20051;-85
2023/01/20 05:29:49;;;;;;;20.85;12.50;;;0.40;99.90;;;;;;5107840;28;20040;-84
2023/01/20 05:32:15;;;;;;;19.25;12.50;;;0.40;99.90;;;;;;5108347;28;20130;-84
2023/01/20 05:34:40;;;;;;;21.55;12.27;;;0.40;99.90;;;;;;5107606;28;20058;-84
2023/01/20 05:37:06;;;;;;;21.23;12.40;;;1.00;99.90;;;;;;5096948;28;20414;-84
2023/01/20 05:39:32;;;;;;;22.10;12.60;;;0.40;99.90;;;;;;5091084;28;20230;-84
2023/01/20 05:41:59;;;;;;;22.88;12.65;;;0.40;99.90;;;;;;5090548;28;20052;-84
2023/01/20 05:44:25;;;;;;;22.20;12.65;;;0.40;99.90;;;;;;5087790;28;20048;-85
2023/01/20 05:46:53;;;;;;;26.58;13.38;;;0.50;99.90;;;;;;5104566;28;20070;-84
2023/01/20 05:49:19;;;;;;;26.17;13.25;;;0.50;99.90;;;;;;5107220;28;20048;-84
2023/01/20 05:51:44;;;;;;;24.27;13.32;;;0.50;99.90;;;;;;5095571;28;20047;-84
2023/01/20 05:54:10;;;;;;;23.90;13.48;;;0.50;99.90;;;;;;5092024;28;20126;-84
2023/01/20 05:56:35;;;;;;;23.85;12.88;;;0.50;99.90;;;;;;5081542;28;20044;-84
2023/01/20 05:59:01;;;;;;;23.13;12.57;;;0.50;99.90;;;;;;5074326;28;20040;-84
2023/01/20 06:01:30;;;;;;;26.65;13.98;;;0.50;99.90;;;;;;5107799;28;20162;-84
2023/01/20 06:03:56;;;;;;;24.65;13.65;;;0.50;99.90;;;;;;5098913;28;20051;-84
2023/01/20 06:06:21;;;;;;;26.70;13.43;;;0.50;99.90;;;;;;5105882;28;20059;-84
2023/01/20 06:08:48;;;;;;;22.60;12.00;;;0.50;99.90;;;;;;5093797;28;20048;-84
2023/01/20 06:11:14;;;;;;;24.00;13.98;;;0.50;99.90;;;;;;5089712;28;20048;-84
2023/01/20 06:13:39;;;;;;;25.15;13.48;;;0.50;99.90;;;;;;5107189;28;20496;-84
2023/01/20 06:16:05;;;;;;;33.50;16.25;;;0.50;99.90;;;;;;5108149;28;20115;-84
2023/01/20 06:18:32;;;;;;;37.00;18.35;;;0.50;99.90;;;;;;5105423;28;20048;-83
2023/01/20 06:20:58;;;;;;;27.70;15.18;;;0.50;99.90;;;;;;5106532;28;20591;-84
2023/01/20 06:23:24;;;;;;;27.17;14.95;;;1.40;99.90;;;;;;5106932;28;20055;-85
2023/01/20 06:25:58;;;;;;;27.42;14.90;;;0.50;99.90;;;;;;5095549;28;20050;-86
2023/01/20 06:28:25;;;;;;;31.90;15.80;;;0.50;99.90;;;;;;5106920;28;20127;-85
2023/01/20 06:30:50;;;;;;;28.05;14.23;;;0.60;99.90;;;;;;5106706;28;20052;-84
2023/01/20 06:33:16;;;;;;;28.20;15.43;;;0.60;99.90;;;;;;5108124;28;20066;-84
2023/01/20 06:35:42;;;;;;;30.48;15.73;;;0.60;99.90;;;;;;5110183;28;20474;-85
2023/01/20 06:38:07;;;;;;;30.92;16.17;;;0.60;99.90;;;;;;5108744;28;20463;-85
2023/01/20 06:40:33;;;;;;;28.85;17.10;;;0.20;99.90;;;;;;5105749;28;20046;-85
2023/01/20 06:42:58;;;;;;;30.40;17.75;;;0.60;99.90;;;;;;5089236;28;20144;-85
2023/01/20 06:45:24;;;;;;;30.52;17.83;;;0.60;99.90;;;;;;5086944;28;20051;-85
2023/01/20 06:47:50;;;;;;;30.30;17.55;;;0.60;99.90;;;;;;5081215;28;20057;-85
2023/01/20 06:50:18;;;;;;;28.33;15.70;;;0.60;99.90;;;;;;5047019;28;20044;-85
2023/01/20 06:52:44;;;;;;;32.58;17.02;;;0.60;99.90;;;;;;5046023;28;20037;-84
2023/01/20 06:55:12;;;;;;;31.92;16.60;;;0.60;99.90;;;;;;5046897;28;20512;-85
2023/01/20 06:57:37;;;;;;;29.10;16.60;;;0.60;99.90;;;;;;5046849;28;20435;-85
2023/01/20 07:00:03;;;;;;;29.75;16.73;;;0.60;99.90;;;;;;5047328;28;20053;-85
2023/01/20 07:02:29;;;;;;;30.67;15.95;;;0.60;99.90;;;;;;5029696;28;20036;-84
2023/01/20 07:04:54;;;;;;;32.85;17.65;;;0.60;99.90;;;;;;5030048;28;20083;-84
2023/01/20 07:07:20;;;;;;;30.38;17.25;;;0.70;99.90;;;;;;5047500;28;20036;-84
2023/01/20 07:09:46;;;;;;;30.50;16.85;;;0.70;99.90;;;;;;5048025;28;20127;-84
2023/01/20 07:12:12;;;;;;;32.47;17.10;;;0.60;99.90;;;;;;5030592;28;20041;-84
2023/01/20 07:14:38;;;;;;;33.42;17.23;;;1.20;99.90;;;;;;5043525;28;20054;-83
2023/01/20 07:17:07;;;;;;;29.85;16.88;;;0.70;99.90;;;;;;5010969;28;20077;-84
2023/01/20 07:19:32;;;;;;;31.80;16.70;;;0.60;99.90;;;;;;5048011;28;20049;-84
2023/01/20 07:21:58;;;;;;;31.73;17.42;;;0.60;99.90;;;;;;5046917;28;20502;-84
2023/01/20 07:24:24;;;;;;;28.30;16.05;;;0.60;99.90;;;;;;5047250;28;20056;-84
2023/01/20 07:26:52;;;;;;;28.92;15.88;;;0.70;99.90;;;;;;5045676;28;20036;-83
2023/01/20 07:29:18;;;;;;;28.00;17.00;;;0.70;99.90;;;;;;5012726;28;20076;-84
2023/01/20 07:31:44;;;;;;;31.85;16.83;;;0.70;99.90;;;;;;5047025;28;20503;-85
2023/01/20 07:34:13;;;;;;;38.30;19.55;;;0.70;99.90;;;;;;5047723;28;20044;-85
2023/01/20 07:36:38;;;;;;;36.08;18.63;;;0.70;99.90;;;;;;5047370;28;20548;-84
2023/01/20 07:39:04;;;;;;;33.30;17.83;;;0.70;99.90;;;;;;5047370;28;20045;-84
2023/01/20 07:41:29;;;;;;;35.50;18.52;;;0.70;99.90;;;;;;5048083;28;20128;-84
2023/01/20 07:43:55;;;;;;;33.80;17.35;;;0.70;99.90;;;;;;5037721;28;20136;-84
2023/01/20 07:46:21;;;;;;;31.85;16.95;;;0.70;99.90;;;;;;5038926;28;20056;-84
2023/01/20 07:48:48;;;;;;;34.25;18.25;;;0.70;99.90;;;;;;5046613;28;20523;-86
2023/01/20 07:51:14;;;;;;;31.40;17.33;;;0.70;99.90;;;;;;5046643;28;20045;-84
2023/01/20 07:53:45;;;;;;;34.38;17.90;;;0.70;99.90;;;;;;5046140;28;20817;-85
2023/01/20 07:56:26;;;;;;;32.67;17.33;;;1.50;99.90;;;;;;5047160;28;20727;-84
2023/01/20 07:58:53;;;;;;;32.83;17.38;;;0.70;99.90;;;;;;5047131;28;20407;-86
2023/01/20 08:01:27;;;;;;;34.40;18.40;;;0.80;99.90;;;;;;5029296;28;20398;-84
2023/01/20 08:03:53;;;;;;;36.03;18.02;;;0.80;99.90;;;;;;5042385;28;20127;-85
2023/01/20 08:06:21;;;;;;;32.03;16.27;;;0.80;99.90;;;;;;5045966;28;20067;-85
2023/01/20 08:08:47;;;;;;;35.88;17.38;;;0.80;99.90;;;;;;5045724;28;20049;-84
2023/01/20 08:11:14;;;;;;;34.20;17.77;;;0.80;99.90;;;;;;5045709;28;20055;-85
2023/01/20 08:13:42;;;;;;;33.90;16.52;;;0.80;99.90;;;;;;5046928;28;20102;-85
2023/01/20 08:16:12;;;;;;;36.42;17.05;;;0.80;99.90;;;;;;5045163;28;20128;-85
2023/01/20 08:18:39;;;;;;;32.42;17.27;;;0.80;99.90;;;;;;5046382;28;20044;-85
2023/01/20 08:21:07;;;;;;;33.45;17.33;;;0.80;99.90;;;;;;5045956;28;20041;-84
2023/01/20 08:23:36;;;;;;;35.15;17.23;;;0.80;99.90;;;;;;5044703;28;20048;-85
2023/01/20 08:26:05;;;;;;;31.92;17.05;;;0.80;99.90;;;;;;5046047;28;20139;-84
2023/01/20 08:28:33;;;;;;;34.00;18.58;;;0.80;99.90;;;;;;5029435;28;20132;-85
2023/01/20 08:31:10;;;;;;;30.90;16.75;;;0.90;99.90;;;;;;5040532;28;20053;-84
2023/01/20 08:33:36;;;;;;;34.10;16.75;;;0.90;99.90;;;;;;5060376;28;20045;-85
2023/01/20 08:36:07;;;;;;;32.97;17.13;;;0.90;99.90;;;;;;5045130;28;20729;-84
2023/01/20 08:38:33;;;;;;;34.60;18.25;;;0.90;99.90;;;;;;5049523;28;20083;-85
2023/01/20 08:40:59;;;;;;;35.40;17.42;;;0.90;99.90;;;;;;5032337;28;20110;-84
2023/01/20 08:43:25;;;;;;;36.92;17.70;;;0.90;99.90;;;;;;5050135;28;20041;-85
2023/01/20 08:45:58;;;;;;;36.10;18.02;;;0.90;99.90;;;;;;5047966;28;20595;-85
2023/01/20 08:48:24;;;;;;;38.55;19.40;;;0.90;99.90;;;;;;5050237;28;20088;-85
2023/01/20 08:50:50;;;;;;;35.38;18.30;;;0.90;99.90;;;;;;5034036;28;20478;-85
2023/01/20 08:53:15;;;;;;;35.65;19.60;;;1.00;99.90;;;;;;5033915;28;20518;-85
2023/01/20 08:55:41;;;;;;;37.28;19.67;;;1.00;99.90;;;;;;5048738;28;20080;-84
2023/01/20 08:58:06;;;;;;;34.58;19.15;;;1.00;99.90;;;;;;5049795;28;20103;-85
2023/01/20 09:00:32;;;;;;;39.67;21.08;;;1.00;99.90;;;;;;5050653;28;20048;-85
2023/01/20 09:02:57;;;;;;;37.67;19.58;;;1.00;99.90;;;;;;5050363;28;20045;-85
2023/01/20 09:05:23;;;;;;;41.65;20.58;;;1.00;99.90;;;;;;5049159;28;20048;-84
2023/01/20 09:07:49;;;;;;;41.00;20.55;;;1.00;99.90;;;;;;5033325;28;20067;-84
2023/01/20 09:10:14;;;;;;;40.35;20.73;;;1.00;99.90;;;;;;5050058;28;20048;-84
2023/01/20 09:12:40;;;;;;;38.70;19.45;;;1.00;99.90;;;;;;5049309;28;20106;-85
2023/01/20 09:15:06;;;;;;;49.80;20.52;;;1.00;99.90;;;;;;5040204;28;20080;-84
2023/01/20 09:17:34;;;;;;;40.40;19.75;;;1.00;99.90;;;;;;5034872;28;20499;-83
2023/01/20 09:20:00;;;;;;;42.38;19.73;;;1.10;99.90;;;;;;5051373;28;20080;-84
2023/01/20 09:22:25;;;;;;;42.95;20.95;;;1.10;99.90;;;;;;5051001;28;20087;-84
2023/01/20 09:24:54;;;;;;;36.53;19.23;;;1.10;99.90;;;;;;5051062;28;20450;-84
2023/01/20 09:27:20;;;;;;;41.22;19.85;;;1.10;99.90;;;;;;5047924;28;20040;-84
2023/01/20 09:29:46;;;;;;;40.17;20.10;;;1.20;99.90;;;;;;5033467;28;20392;-84
2023/01/20 09:32:12;;;;;;;40.72;20.90;;;1.10;99.90;;;;;;5031800;28;20060;-84
2023/01/20 09:34:38;;;;;;;44.78;21.00;;;1.20;99.90;;;;;;5047367;28;20044;-85
2023/01/20 09:45:38;;;;;;;38.95;20.63;;;1.20;99.90;;;;;;5044994;28;20480;-84
2023/01/20 09:54:10;;;;;;;45.75;20.75;;;1.20;99.90;;;;;;5064022;28;20102;-84
2023/01/20 09:56:42;;;;;;;41.65;20.27;;;2.30;99.90;;;;;;5046375;28;20055;-84
2023/01/20 09:59:54;;;;;;;40.77;18.90;;;1.30;99.90;;;;;;5030463;28;20044;-83
2023/01/20 10:02:27;;;;;;;38.13;18.50;;;1.30;99.90;;;;;;5039157;28;20092;-82
2023/01/20 10:05:06;;;;;;;41.33;21.33;;;1.30;99.90;;;;;;5048810;28;20507;-83
2023/01/20 10:08:04;;;;;;;36.92;18.63;;;1.30;99.90;;;;;;5048043;28;20041;-83
2023/01/20 10:10:44;;;;;;;36.97;17.55;;;1.30;99.90;;;;;;5029324;28;20438;-82
2023/01/20 10:13:19;;;;;;;36.92;17.90;;;1.40;99.90;;;;;;5048637;28;20075;-83
2023/01/20 10:15:55;;;;;;;38.70;19.55;;;1.40;99.90;;;;;;5047753;28;20164;-83
2023/01/20 10:18:36;;;;;;;35.47;17.83;;;1.40;99.90;;;;;;5032154;28;20068;-83
2023/01/20 10:21:11;;;;;;;32.70;17.23;;;1.40;99.90;;;;;;5048613;28;20491;-84
2023/01/20 10:23:51;;;;;;;35.80;17.83;;;1.50;99.90;;;;;;5050983;28;20045;-85
2023/01/20 10:26:26;;;;;;;36.33;17.52;;;1.40;99.90;;;;;;5031277;28;20049;-85
2023/01/20 10:28:58;;;;;;;41.35;18.98;;;1.50;99.90;;;;;;5048555;28;20041;-85
2023/01/20 10:31:27;;;;;;;36.58;18.40;;;1.50;99.90;;;;;;5031894;28;20091;-85
2023/01/20 10:33:59;;;;;;;36.65;18.92;;;1.50;99.90;;;;;;5043586;28;20092;-84
2023/01/20 10:36:27;;;;;;;35.10;18.38;;;;;;;;;;5012410;28;20380;-83
2023/01/20 10:38:57;;;;;;;34.85;18.25;;;;;;;;;;5028409;28;20049;-83
2023/01/20 10:41:31;;;;;;;34.22;16.27;;;;;;;;;;5028478;28;20056;-84
2023/01/20 10:43:58;;;;;;;33.60;16.77;;;;;;;;;;5048218;28;20052;-82
2023/01/20 10:46:40;;;;;;;30.05;16.25;;;;;;;;;;5048802;28;20127;-83
2023/01/20 10:49:25;;;;;;;36.55;17.27;;;;;;;;;;5043945;28;20128;-82
2023/01/20 10:51:58;;;;;;;33.83;17.50;;;;;;;;;;5042507;28;20049;-81
2023/01/20 10:54:43;;;;;;;35.67;17.52;;;;;;;;;;5047086;28;20082;-82
2023/01/20 10:57:12;;;;;;;30.77;16.80;;;;;;;;;;5045992;28;20041;-82
2023/01/20 10:59:47;;;;;;;34.33;16.25;;;;;;;;;;5022276;28;20046;-82
2023/01/20 11:02:22;;;;;;;31.85;16.98;;;;;;;;;;5026468;28;20151;-83
2023/01/20 11:04:56;;;;;;;31.00;16.67;;;1.70;99.90;;;;;;5034415;28;20053;-84
2023/01/20 11:07:22;;;;;;;32.22;16.98;;;1.70;99.90;;;;;;5045847;28;20060;-84
2023/01/20 11:09:48;;;;;;;35.55;17.23;;;1.60;99.90;;;;;;5043733;28;20041;-85
2023/01/20 11:12:16;;;;;;;35.85;17.77;;;1.60;99.90;;;;;;5045938;28;20059;-86
2023/01/20 11:14:45;;;;;;;32.15;17.75;;;1.60;99.90;;;;;;5042432;28;20048;-85
2023/01/20 11:17:16;;;;;;;32.22;17.02;;;1.60;99.90;;;;;;5050955;28;20040;-87
2023/01/20 11:19:55;;;;;;;38.10;18.20;;;1.70;99.90;;;;;;5037461;28;20138;-86
2023/01/20 11:22:30;;;;;;;34.38;16.75;;;1.60;99.90;;;;;;5030070;28;20045;-86
2023/01/20 11:25:02;;;;;;;32.83;16.42;;;1.60;99.90;;;;;;5045518;28;20044;-86
2023/01/20 11:27:33;;;;;;;35.35;16.67;;;1.60;99.90;;;;;;5044750;28;20406;-86
2023/01/20 11:30:04;;;;;;;31.30;16.48;;;1.60;99.90;;;;;;5045656;28;20131;-86
2023/01/20 11:32:38;;;;;;;33.03;16.27;;;1.60;99.90;;;;;;5038897;28;20054;-87
2023/01/20 11:35:24;;;;;;;33.75;17.92;;;1.70;99.90;;;;;;5034906;28;20045;-87
2023/01/20 11:37:53;;;;;;;37.00;18.10;;;1.60;99.90;;;;;;5041796;28;20044;-87
2023/01/20 11:40:22;;;;;;;36.60;18.80;;;1.70;99.90;;;;;;5046761;28;20072;-86
2023/01/20 11:42:49;;;;;;;33.50;18.25;;;1.60;99.90;;;;;;5046330;28;20227;-86
2023/01/20 11:45:34;;;;;;;35.53;18.08;;;1.60;99.90;;;;;;5046008;28;20103;-85
2023/01/20 11:48:02;;;;;;;33.85;17.40;;;1.70;99.90;;;;;;5037515;28;20134;-86
2023/01/20 11:50:58;;;;;;;35.63;17.77;;;1.70;99.90;;;;;;5046234;28;20391;-87
2023/01/20 11:53:32;;;;;;;33.65;17.38;;;1.70;99.90;;;;;;5042457;28;20056;-85
2023/01/20 11:56:01;;;;;;;33.50;17.48;;;1.80;99.90;;;;;;5045826;28;20588;-85
2023/01/20 11:58:31;;;;;;;35.22;18.55;;;;;;;;;;5043168;28;20079;-85
2023/01/20 12:01:05;;;;;;;34.60;17.60;;;1.70;99.90;;;;;;5044435;28;20515;-85
2023/01/20 12:03:45;;;;;;;36.90;18.02;;;1.80;99.90;;;;;;5046685;28;20616;-86
2023/01/20 12:06:22;;;;;;;33.28;18.10;;;2.10;99.90;;;;;;5044432;28;20064;-85
2023/01/20 12:08:50;;;;;;;34.08;18.42;;;1.80;99.90;;;;;;5046885;28;20395;-85
2023/01/20 12:11:30;;;;;;;33.25;17.33;;;1.80;99.90;;;;;;5029491;28;20033;-85
2023/01/20 12:14:22;;;;;;;38.95;18.73;;;1.80;99.90;;;;;;5041582;28;20390;-86
2023/01/20 12:17:20;;;;;;;32.78;16.98;;;1.80;99.90;;;;;;5024656;28;20045;-86
2023/01/20 12:20:15;;;;;;;35.08;17.08;;;1.80;99.90;;;;;;5042681;28;20052;-87
2023/01/20 12:23:13;;;;;;;35.88;18.33;;;1.80;99.90;;;;;;5036740;28;20064;-86
2023/01/20 12:25:45;;;;;;;31.38;17.20;;;1.80;99.90;;;;;;5029017;28;20049;-86
2023/01/20 12:28:19;;;;;;;38.05;18.33;;;1.90;99.90;;;;;;5046553;28;20079;-87
2023/01/20 12:31:02;;;;;;;31.15;17.38;;;1.90;99.90;;;;;;5047984;28;20053;-87
2023/01/20 12:33:38;;;;;;;33.70;16.35;;;2.70;99.90;;;;;;5028381;28;20041;-85
2023/01/20 12:36:35;;;;;;;29.60;16.42;;;1.90;99.90;;;;;;5044988;28;20187;-86
2023/01/20 12:39:16;;;;;;;30.08;16.23;;;1.90;99.90;;;;;;5043763;28;20059;-86
2023/01/20 12:42:14;;;;;;;32.65;17.50;;;1.90;99.90;;;;;;5044208;28;20060;-86
2023/01/20 12:44:46;;;;;;;38.25;16.67;;;1.90;99.90;;;;;;5045852;28;20049;-86
2023/01/20 12:47:40;;;;;;;36.47;18.05;;;1.90;99.90;;;;;;5030043;28;20049;-87
2023/01/20 12:50:27;;;;;;;32.58;17.30;;;1.90;99.90;;;;;;5046427;28;20052;-87
2023/01/20 12:53:11;;;;;;;30.60;16.35;;;1.80;99.90;;;;;;5046267;28;20044;-86
2023/01/20 12:55:47;;;;;;;34.67;16.77;;;1.80;99.90;;;;;;5046050;28;20044;-86
2023/01/20 12:58:42;;;;;;;33.75;17.20;;;1.80;99.90;;;;;;5024543;28;20056;-86
2023/01/20 13:01:23;;;;;;;30.10;17.00;;;1.90;99.90;;;;;;5009530;28;20483;-85
2023/01/20 13:04:14;;;;;;;33.60;17.27;;;1.90;99.90;;;;;;5011571;28;20084;-86
2023/01/20 13:06:53;;;;;;;31.80;16.35;;;1.90;99.90;;;;;;5027423;28;20404;-86
2023/01/20 13:09:36;;;;;;;32.70;16.90;;;1.90;99.90;;;;;;5027368;28;20049;-87
2023/01/20 13:12:43;;;;;;;29.83;16.45;;;1.90;99.90;;;;;;5029590;28;20049;-86
2023/01/20 13:15:27;;;;;;;33.38;16.85;;;1.90;99.90;;;;;;4993042;28;20055;-86
2023/01/20 13:18:30;;;;;;;33.03;16.67;;;1.90;99.90;;;;;;5036406;28;20115;-86